createdAt,value
2024-02-12T00:00:58.898Z,97482.30
2024-02-12T00:06:20.806Z,97488.83
2024-02-12T00:11:25.732Z,97491.80
2024-02-12T00:16:31.692Z,97496.63
2024-02-12T00:21:37.781Z,97499.91
2024-02-12T00:26:41.440Z,97505.94
2024-02-12T00:31:45.186Z,97510.36
2024-02-12T00:36:50.498Z,97514.73
2024-02-12T00:41:58.456Z,97520.55
2024-02-12T00:47:22.313Z,97525.90
2024-02-12T00:52:50.630Z,97525.66
2024-02-12T00:57:59.758Z,97529.19
2024-02-12T01:03:23.562Z,97535.99
2024-02-12T01:08:41.752Z,97537.72
2024-02-12T01:13:49.177Z,97542.94
2024-02-12T01:19:17.459Z,97545.65
2024-02-12T01:24:42.377Z,97552.82
2024-02-12T01:29:49.255Z,97552.52
2024-02-12T01:34:53.095Z,97556.58
2024-02-12T01:39:57.415Z,97563.09
2024-02-12T01:45:13.785Z,97567.89
2024-02-12T01:50:18.591Z,97572.07
2024-02-12T01:56:01.365Z,97573.91
2024-02-12T02:01:06.934Z,97583.45
2024-02-12T02:06:14.975Z,97586.05
2024-02-12T02:11:19.178Z,97591.51
2024-02-12T02:17:04.331Z,97585.39
2024-02-12T02:22:09.666Z,97584.48
2024-02-12T02:27:13.215Z,97581.27
2024-02-12T02:32:16.820Z,97580.43
2024-02-12T02:37:46.016Z,97583.20
2024-02-12T02:42:54.094Z,97589.28
2024-02-12T02:48:03.398Z,97587.63
2024-02-12T02:53:19.435Z,97596.77
2024-02-12T02:58:28.626Z,97598.70
2024-02-12T03:03:32.459Z,97602.20
2024-02-12T03:08:37.040Z,97605.85
2024-02-12T03:14:00.935Z,97608.05
2024-02-12T03:19:06.680Z,97613.64
2024-02-12T03:24:10.641Z,97619.95
2024-02-12T03:29:14.571Z,97618.63
2024-02-12T03:34:51.906Z,97618.87
2024-02-12T03:40:39.177Z,97617.21
2024-02-12T03:46:00.626Z,97624.73
2024-02-12T03:51:22.603Z,97630.58
2024-02-12T03:56:44.555Z,97638.77
2024-02-12T04:01:48.415Z,97643.52
2024-02-12T04:07:09.912Z,97647.06
2024-02-12T04:12:21.778Z,97649.23
2024-02-12T04:17:51.132Z,97655.33
2024-02-12T04:22:54.887Z,97662.11
2024-02-12T04:28:03.755Z,97661.93
2024-02-12T04:33:17.854Z,97662.95
2024-02-12T04:38:24.990Z,97666.93
2024-02-12T04:43:48.980Z,97670.15
2024-02-12T04:49:02.353Z,97674.34
2024-02-12T04:54:30.004Z,97681.95
2024-02-12T04:59:33.409Z,97683.69
2024-02-12T05:04:39.773Z,97688.15
2024-02-12T05:09:45.971Z,97691.02
2024-02-12T05:14:52.365Z,97694.20
2024-02-12T05:20:24.984Z,97699.79
2024-02-12T05:25:28.516Z,97703.51
2024-02-12T05:30:35.608Z,97708.73
2024-02-12T05:35:38.970Z,97715.14
2024-02-12T05:40:42.699Z,97715.05
2024-02-12T05:45:49.175Z,97720.11
2024-02-12T05:50:54.826Z,97725.72
2024-02-12T05:56:01.182Z,97727.23
2024-02-12T06:01:06.129Z,97730.98
2024-02-12T06:06:10.129Z,97740.42
2024-02-12T06:11:13.977Z,97745.06
2024-02-12T06:16:36.547Z,97756.46
2024-02-12T06:21:47.299Z,97761.55
2024-02-12T06:27:12.355Z,97768.02
2024-02-12T06:32:16.927Z,97774.48
2024-02-12T06:37:20.776Z,97780.97
2024-02-12T06:42:24.155Z,97785.23
2024-02-12T06:47:27.635Z,97798.97
2024-02-12T06:52:31.987Z,97800.42
2024-02-12T06:57:38.364Z,97808.83
2024-02-12T07:03:07.881Z,97813.98
2024-02-12T07:08:22.747Z,97819.90
2024-02-12T07:13:38.607Z,97823.08
2024-02-12T07:19:14.887Z,97827.73
2024-02-12T07:24:24.763Z,97827.84
2024-02-12T07:29:38.316Z,97830.15
2024-02-12T07:34:45.512Z,97837.21
2024-02-12T07:39:52.454Z,97841.36
2024-02-12T07:45:16.409Z,97853.20
2024-02-12T07:50:31.333Z,97865.13
2024-02-12T07:55:35.049Z,97868.58
2024-02-12T08:01:09.305Z,97879.54
2024-02-12T08:06:13.718Z,97889.06
2024-02-12T08:11:18.864Z,97897.58
2024-02-12T08:16:23.048Z,97909.30
2024-02-12T08:21:26.609Z,97916.49
2024-02-12T08:26:31.082Z,97922.38
2024-02-12T08:31:35.186Z,97929.36
2024-02-12T08:36:45.109Z,97938.16
2024-02-12T08:41:52.268Z,97947.86
2024-02-12T08:46:56.239Z,97948.89
2024-02-12T08:52:03.302Z,97955.84
2024-02-12T08:57:16.189Z,97964.63
2024-02-12T09:02:23.725Z,97971.70
2024-02-12T09:07:28.196Z,97975.91
2024-02-12T09:12:40.456Z,97982.58
2024-02-12T09:17:52.442Z,97988.94
2024-02-12T09:22:56.685Z,97994.23
2024-02-12T09:28:01.055Z,98003.77
2024-02-12T09:33:05.301Z,98009.05
2024-02-12T09:38:10.251Z,98018.67
2024-02-12T09:43:22.288Z,98028.02
2024-02-12T09:48:26.704Z,98037.21
2024-02-12T09:53:38.612Z,98042.00
2024-02-12T09:58:45.873Z,98053.70
2024-02-12T10:04:03.846Z,98058.34
2024-02-12T10:09:08.686Z,98059.54
2024-02-12T10:14:14.579Z,98065.23
2024-02-12T10:19:39.890Z,98069.52
2024-02-12T10:24:47.225Z,98081.83
2024-02-12T10:30:07.146Z,98080.40
2024-02-12T10:35:15.883Z,98080.56
2024-02-12T10:40:33.289Z,98086.05
2024-02-12T10:45:37.133Z,98086.80
2024-02-12T10:51:04.478Z,98089.48
2024-02-12T10:56:29.003Z,98092.63
2024-02-12T11:01:32.968Z,98098.60
2024-02-12T11:07:20.131Z,98103.52
2024-02-12T11:12:35.766Z,98110.63
2024-02-12T11:17:39.853Z,98115.79
2024-02-12T11:23:06.590Z,98122.58
2024-02-12T11:28:26.506Z,98129.88
2024-02-12T11:34:12.535Z,98134.55
2024-02-12T11:39:39.266Z,98139.85
2024-02-12T11:44:49.274Z,98144.06
2024-02-12T11:49:56.345Z,98147.74
2024-02-12T11:55:08.531Z,98153.15
2024-02-12T12:00:38.381Z,98156.19
2024-02-12T12:05:50.695Z,98160.60
2024-02-12T12:10:54.386Z,98169.27
2024-02-12T12:16:01.162Z,98172.92
2024-02-12T12:21:08.701Z,98178.76
2024-02-12T12:26:24.266Z,98184.75
2024-02-12T12:31:30.671Z,98193.61
2024-02-12T12:36:36.143Z,98194.23
2024-02-12T12:41:40.014Z,98197.48
2024-02-12T12:46:44.136Z,98193.21
2024-02-12T12:51:47.832Z,98194.89
2024-02-12T12:56:54.232Z,98193.01
2024-02-12T13:02:29.160Z,98200.61
2024-02-12T13:07:36.204Z,98205.41
2024-02-12T13:12:59.935Z,98212.06
2024-02-12T13:18:03.699Z,98219.94
2024-02-12T13:23:08.374Z,98223.33
2024-02-12T13:28:12.888Z,98230.23
2024-02-12T13:33:18.188Z,98233.81
2024-02-12T13:38:23.361Z,98236.17
2024-02-12T13:43:26.917Z,98236.46
2024-02-12T13:48:34.049Z,98247.38
2024-02-12T13:53:59.920Z,98249.20
2024-02-12T13:59:05.810Z,98258.73
2024-02-12T14:04:11.377Z,98262.09
2024-02-12T14:09:35.453Z,98269.05
2024-02-12T14:14:48.772Z,98273.26
2024-02-12T14:20:01.908Z,98280.64
2024-02-12T14:25:06.954Z,98280.70
2024-02-12T14:30:20.561Z,98288.48
2024-02-12T14:35:27.173Z,98291.89
2024-02-12T14:40:34.158Z,98306.66
2024-02-12T14:45:45.452Z,98317.84
2024-02-12T14:51:11.028Z,98325.79
2024-02-12T14:56:14.496Z,98334.86
2024-02-12T15:02:18.961Z,98342.25
2024-02-12T15:07:25.463Z,98354.64
2024-02-12T15:12:29.642Z,98362.27
2024-02-12T15:17:58.683Z,98370.59
2024-02-12T15:23:28.744Z,98381.31
2024-02-12T15:28:32.141Z,98398.64
2024-02-12T15:33:35.929Z,98403.95
2024-02-12T15:38:47.162Z,98407.66
2024-02-12T15:43:56.785Z,98412.04
2024-02-12T15:49:07.573Z,98418.14
2024-02-12T15:54:21.421Z,98426.05
2024-02-12T15:59:25.444Z,98429.77
2024-02-12T16:04:39.360Z,98442.90
2024-02-12T16:09:43.091Z,98450.05
2024-02-12T16:14:52.578Z,98457.48
2024-02-12T16:19:56.866Z,98463.39
2024-02-12T16:25:01.517Z,98472.73
2024-02-12T16:30:16.049Z,98484.66
2024-02-12T16:35:21.009Z,98498.48
2024-02-12T16:40:24.911Z,98504.68
2024-02-12T16:45:37.373Z,98508.80
2024-02-12T16:50:41.214Z,98517.84
2024-02-12T16:55:51.273Z,98519.73
2024-02-12T17:01:10.658Z,98522.92
2024-02-12T17:06:34.039Z,98538.18
2024-02-12T17:11:38.961Z,98551.80
2024-02-12T17:16:45.555Z,98562.02
2024-02-12T17:21:52.877Z,98570.52
2024-02-12T17:26:56.372Z,98582.76
2024-02-12T17:32:02.522Z,98593.55
2024-02-12T17:37:07.237Z,98603.53
2024-02-12T17:42:20.167Z,98605.39
2024-02-12T17:47:26.215Z,98620.04
2024-02-12T17:52:32.725Z,98626.19
2024-02-12T17:57:36.537Z,98633.39
2024-02-12T18:02:39.900Z,98635.80
2024-02-12T18:07:43.574Z,98647.05
2024-02-12T18:12:47.600Z,98647.65
2024-02-12T18:18:29.019Z,98650.27
2024-02-12T18:23:32.919Z,98656.83
2024-02-12T18:28:36.721Z,98667.40
2024-02-12T18:33:50.267Z,98667.69
2024-02-12T18:39:23.884Z,98667.36
2024-02-12T18:44:30.636Z,98670.58
2024-02-12T18:50:03.037Z,98681.95
2024-02-12T18:55:11.192Z,98681.70
2024-02-12T19:00:16.239Z,98692.58
2024-02-12T19:05:23.869Z,98700.06
2024-02-12T19:10:29.145Z,98707.59
2024-02-12T19:15:32.965Z,98710.65
2024-02-12T19:20:41.698Z,98719.01
2024-02-12T19:25:54.262Z,98732.48
2024-02-12T19:30:59.552Z,98747.23
2024-02-12T19:36:07.054Z,98758.04
2024-02-12T19:41:31.299Z,98770.69
2024-02-12T19:46:36.229Z,98778.91
2024-02-12T19:51:40.014Z,98789.48
2024-02-12T19:57:06.966Z,98789.55
2024-02-12T20:02:12.596Z,98796.69
2024-02-12T20:07:17.032Z,98803.95
2024-02-12T20:12:33.498Z,98812.20
2024-02-12T20:17:38.504Z,98814.97
2024-02-12T20:22:47.840Z,98820.02
2024-02-12T20:27:51.424Z,98826.47
2024-02-12T20:32:56.125Z,98834.87
2024-02-12T20:38:03.387Z,98842.48
2024-02-12T20:43:08.572Z,98850.23
2024-02-12T20:48:13.999Z,98859.00
2024-02-12T20:53:18.105Z,98865.35
2024-02-12T20:58:30.685Z,98870.77
2024-02-12T21:03:34.138Z,98879.67
2024-02-12T21:08:46.885Z,98882.16
2024-02-12T21:13:50.888Z,98891.20
2024-02-12T21:19:09.255Z,98896.90
2024-02-12T21:24:20.305Z,98904.08
2024-02-12T21:29:23.898Z,98905.88
2024-02-12T21:34:28.168Z,98909.66
2024-02-12T21:39:43.050Z,98920.02
2024-02-12T21:44:46.822Z,98928.85
2024-02-12T21:49:53.596Z,98931.73
2024-02-12T21:54:57.581Z,98937.69
2024-02-12T22:00:01.225Z,98943.70
2024-02-12T22:05:05.606Z,98945.04
2024-02-12T22:10:17.081Z,98948.00
2024-02-12T22:15:21.997Z,98957.44
2024-02-12T22:20:25.968Z,98962.02
2024-02-12T22:25:46.256Z,98968.33
2024-02-12T22:31:12.447Z,98970.97
2024-02-12T22:36:20.200Z,98977.20
2024-02-12T22:41:44.393Z,98986.55
2024-02-12T22:47:12.127Z,99002.50
2024-02-12T22:52:38.199Z,99010.98
2024-02-12T22:57:44.001Z,99021.31
2024-02-12T23:02:58.219Z,99030.79
2024-02-12T23:08:14.157Z,99037.86
2024-02-12T23:13:58.382Z,99045.92
2024-02-12T23:19:07.421Z,99049.95
2024-02-12T23:24:16.268Z,99056.95
2024-02-12T23:29:43.302Z,99059.54
2024-02-12T23:34:51.244Z,99063.92
2024-02-12T23:40:02.436Z,99073.92
2024-02-12T23:45:08.131Z,99081.86
2024-02-12T23:50:34.326Z,99084.49
2024-02-12T23:55:38.640Z,99084.44
